Terminal Aerodrome Forecast
Issued by NWS

Home | Current Version | Previous Version | Text Only | Print | Product List | Glossary On
Versions: 1 2 3 4 5 6 7 8 9 10 11 12 13 14 15 16
000
FTUS46 KMTR 240541
TAFMRY
TAF
KMRY 240541Z 2406/2506 27009KT P6SM SCT200
      TEMPO 2406/2410 BKN015
     FM241000 23006KT P6SM BKN100
     FM241600 29005KT P6SM BKN050 OVC100
     FM241900 29010G15KT P6SM -SHRA OVC050
     FM250400 21007KT P6SM SCT060=

USA.gov is the U.S. government's official web portal to all federal, state and local government web resources and services.